createdAt,value
2019-04-07T00:00:41.086Z,2.47
2019-04-07T00:03:11.580Z,2.60
2019-04-07T00:05:41.536Z,2.53
2019-04-07T00:08:11.269Z,2.40
2019-04-07T00:10:41.326Z,2.50
2019-04-07T00:13:11.201Z,2.60
2019-04-07T00:15:41.575Z,2.47
2019-04-07T00:18:10.894Z,2.40
2019-04-07T00:20:40.280Z,2.40
2019-04-07T00:23:10.682Z,2.43
2019-04-07T00:25:41.450Z,2.20
2019-04-07T00:28:11.316Z,2.23
2019-04-07T00:30:41.234Z,2.23
2019-04-07T00:33:11.275Z,2.17
2019-04-07T00:35:41.127Z,2.20
2019-04-07T00:38:10.631Z,2.30
2019-04-07T00:40:40.379Z,2.40
2019-04-07T00:43:09.982Z,2.20
2019-04-07T00:45:39.343Z,2.30
2019-04-07T00:48:09.061Z,1.97
2019-04-07T00:50:38.443Z,2.17
2019-04-07T00:53:07.957Z,2.03
2019-04-07T00:55:37.490Z,2.20
2019-04-07T00:58:07.118Z,2.03
2019-04-07T01:00:38.755Z,2.20
2019-04-07T01:03:08.550Z,2.03
2019-04-07T01:05:40.733Z,2.17
2019-04-07T01:08:09.623Z,2.30
2019-04-07T01:10:39.211Z,2.10
2019-04-07T01:13:08.574Z,2.20
2019-04-07T01:15:38.656Z,2.27
2019-04-07T01:18:08.767Z,1.97
2019-04-07T01:20:38.145Z,2.10
2019-04-07T01:26:10.531Z,1.70
2019-04-07T01:28:40.726Z,1.93
2019-04-07T01:31:10.203Z,2.10
2019-04-07T01:33:40.079Z,2.30
2019-04-07T01:36:11.092Z,2.07
2019-04-07T01:38:42.219Z,1.93
2019-04-07T01:41:20.209Z,1.80
2019-04-07T01:43:54.730Z,2.07
2019-04-07T01:46:42.727Z,1.90
2019-04-07T01:49:16.723Z,2.33
2019-04-07T01:52:03.290Z,2.00
2019-04-07T01:54:50.726Z,1.70
2019-04-07T01:57:31.082Z,1.83
2019-04-07T02:00:11.225Z,1.70
2019-04-07T02:02:45.543Z,2.20
2019-04-07T02:05:35.422Z,2.20
2019-04-07T02:08:24.973Z,2.00
2019-04-07T02:11:02.519Z,2.27
2019-04-07T02:13:42.911Z,1.70
2019-04-07T02:16:14.489Z,1.73
2019-04-07T02:18:45.516Z,2.10
2019-04-07T02:21:19.687Z,2.00
2019-04-07T02:23:50.974Z,2.20
2019-04-07T02:26:40.022Z,2.00
2019-04-07T02:29:28.084Z,1.80
2019-04-07T02:32:15.497Z,2.40
2019-04-07T02:34:50.931Z,2.17
2019-04-07T02:37:24.952Z,2.00
2019-04-07T02:39:56.773Z,2.00
2019-04-07T02:42:34.298Z,1.80
2019-04-07T02:45:13.019Z,2.07
2019-04-07T02:47:50.031Z,2.00
2019-04-07T02:50:39.636Z,1.83
2019-04-07T02:53:27.124Z,1.90
2019-04-07T02:55:58.306Z,2.07
2019-04-07T02:58:32.722Z,2.00
2019-04-07T03:01:15.994Z,1.93
2019-04-07T03:03:53.146Z,2.10
2019-04-07T03:06:43.035Z,2.03
2019-04-07T03:09:08.777Z,1.97
2019-04-07T03:11:40.470Z,2.10
2019-04-07T03:14:12.413Z,2.50
2019-04-07T03:16:43.774Z,2.03
2019-04-07T03:19:17.477Z,2.17
2019-04-07T03:21:55.431Z,2.00
2019-04-07T03:24:29.318Z,2.30
2019-04-07T03:27:18.985Z,2.30
2019-04-07T03:29:50.091Z,2.10
2019-04-07T03:32:40.001Z,2.47
2019-04-07T03:35:30.138Z,2.53
2019-04-07T03:38:02.026Z,2.73
2019-04-07T03:40:33.565Z,2.57
2019-04-07T03:43:17.684Z,2.43
2019-04-07T03:45:49.831Z,2.53
2019-04-07T03:48:24.536Z,2.93
2019-04-07T03:51:14.937Z,2.40
2019-04-07T03:54:00.968Z,2.70
2019-04-07T03:56:41.583Z,2.50
2019-04-07T03:59:29.035Z,2.70
2019-04-07T04:02:00.380Z,2.83
2019-04-07T04:04:41.543Z,2.60
2019-04-07T04:07:30.718Z,2.90
2019-04-07T04:10:04.114Z,2.80
2019-04-07T04:12:35.651Z,3.43
2019-04-07T04:15:18.399Z,3.40
2019-04-07T04:17:48.130Z,3.57
2019-04-07T04:20:17.771Z,2.80
2019-04-07T04:22:47.144Z,2.97
2019-04-07T04:25:17.217Z,3.67
2019-04-07T04:27:46.813Z,3.13
2019-04-07T04:30:16.906Z,3.40
2019-04-07T04:32:46.423Z,2.60
2019-04-07T04:35:16.933Z,2.97
2019-04-07T04:37:51.679Z,2.93
2019-04-07T04:40:17.815Z,3.33
2019-04-07T04:42:47.360Z,3.10
2019-04-07T04:45:17.921Z,3.10
2019-04-07T04:47:48.243Z,2.80
2019-04-07T04:50:17.864Z,3.13
2019-04-07T04:52:47.367Z,2.97
2019-04-07T04:55:16.795Z,3.30
2019-04-07T04:57:46.232Z,3.40
2019-04-07T05:00:15.996Z,3.53
2019-04-07T05:02:45.691Z,3.27
2019-04-07T05:05:15.150Z,3.17
2019-04-07T05:07:55.473Z,3.20
2019-04-07T05:10:15.732Z,3.10
2019-04-07T05:12:45.120Z,3.40
2019-04-07T05:15:16.301Z,3.37
2019-04-07T05:17:45.882Z,2.77
2019-04-07T05:20:16.166Z,3.40
2019-04-07T05:22:46.087Z,4.60
2019-04-07T05:25:15.635Z,3.00
2019-04-07T05:27:45.780Z,2.50
2019-04-07T05:30:15.635Z,3.50
2019-04-07T05:32:45.371Z,3.90
2019-04-07T05:35:15.051Z,3.93
2019-04-07T05:37:44.730Z,3.70
2019-04-07T05:40:14.156Z,4.27
2019-04-07T05:42:44.668Z,3.53
2019-04-07T05:45:14.974Z,3.57
2019-04-07T05:47:48.159Z,4.10
2019-04-07T05:50:15.511Z,3.50
2019-04-07T05:52:44.935Z,3.40
2019-04-07T05:55:15.207Z,3.97
2019-04-07T05:57:45.322Z,3.00
2019-04-07T06:00:16.659Z,3.23
2019-04-07T06:02:46.022Z,3.70
2019-04-07T06:05:17.289Z,3.50
2019-04-07T06:07:47.031Z,3.77
2019-04-07T06:10:18.201Z,3.40
2019-04-07T06:12:48.301Z,3.20
2019-04-07T06:15:22.018Z,3.83
2019-04-07T06:17:51.199Z,3.27
2019-04-07T06:20:20.713Z,3.53
2019-04-07T06:22:53.051Z,2.93
2019-04-07T06:25:21.563Z,3.60
2019-04-07T06:27:51.889Z,3.40
2019-04-07T06:40:03.642Z,3.70
2019-04-07T06:42:35.467Z,3.80
2019-04-07T06:45:08.507Z,4.07
2019-04-07T06:47:48.855Z,3.37
2019-04-07T06:50:25.894Z,3.70
2019-04-07T06:53:03.221Z,3.90
2019-04-07T06:55:43.959Z,3.67
2019-04-07T06:58:32.022Z,3.77
2019-04-07T07:01:14.482Z,3.50
2019-04-07T07:03:45.467Z,3.63
2019-04-07T07:06:18.186Z,4.43
2019-04-07T07:09:06.162Z,3.90
2019-04-07T07:11:56.006Z,4.10
2019-04-07T07:14:45.945Z,4.27
2019-04-07T07:17:28.955Z,3.80
2019-04-07T07:20:03.554Z,4.57
2019-04-07T07:22:40.274Z,4.10
2019-04-07T07:25:10.255Z,4.10
2019-04-07T07:27:40.744Z,4.30
2019-04-07T07:30:11.023Z,4.10
2019-04-07T07:32:40.943Z,4.93
2019-04-07T07:35:14.452Z,4.37
2019-04-07T07:37:41.644Z,4.77
2019-04-07T07:40:12.414Z,4.33
2019-04-07T07:42:42.253Z,4.17
2019-04-07T07:45:13.655Z,4.47
2019-04-07T07:47:43.633Z,4.43
2019-04-07T07:50:13.585Z,4.57
2019-04-07T07:52:44.348Z,4.50
2019-04-07T07:55:14.221Z,4.40
2019-04-07T07:57:43.761Z,4.80
2019-04-07T08:00:13.530Z,4.40
2019-04-07T08:02:43.143Z,4.50
2019-04-07T08:05:12.735Z,4.40
2019-04-07T08:07:46.837Z,4.30
2019-04-07T08:10:13.275Z,4.30
2019-04-07T08:12:43.711Z,4.77
2019-04-07T08:15:13.794Z,3.90
2019-04-07T08:17:44.115Z,3.90
2019-04-07T08:20:14.196Z,4.00
2019-04-07T08:22:44.934Z,4.27
2019-04-07T08:25:15.262Z,4.37
2019-04-07T08:27:45.253Z,3.90
2019-04-07T08:30:14.989Z,4.07
2019-04-07T08:32:44.371Z,4.17
2019-04-07T08:35:14.346Z,4.40
2019-04-07T08:37:47.123Z,4.30
2019-04-07T08:40:16.676Z,4.33
2019-04-07T08:42:49.031Z,4.47
2019-04-07T08:45:18.944Z,4.10
2019-04-07T08:47:50.901Z,4.33
2019-04-07T08:50:21.529Z,4.47
2019-04-07T08:52:51.115Z,4.77
2019-04-07T08:55:21.842Z,4.27
2019-04-07T08:57:51.935Z,4.73
2019-04-07T09:00:26.169Z,4.80
2019-04-07T09:03:03.649Z,4.43
2019-04-07T09:05:29.087Z,4.33
2019-04-07T09:07:57.946Z,3.83
2019-04-07T09:10:28.991Z,4.27
2019-04-07T09:13:01.131Z,4.43
2019-04-07T09:15:48.935Z,3.80
2019-04-07T09:18:26.552Z,3.80
2019-04-07T09:21:15.172Z,3.97
2019-04-07T09:23:46.923Z,3.97
2019-04-07T09:26:21.877Z,3.97
2019-04-07T09:28:55.735Z,3.80
2019-04-07T09:31:41.828Z,3.63
2019-04-07T09:34:20.116Z,3.70
2019-04-07T09:37:07.724Z,3.50
2019-04-07T09:39:59.717Z,3.63
2019-04-07T09:42:28.015Z,3.73
2019-04-07T09:45:02.145Z,4.00
2019-04-07T09:47:33.251Z,3.57
2019-04-07T09:50:13.718Z,3.60
2019-04-07T09:52:54.111Z,3.40
2019-04-07T09:55:41.162Z,3.17
2019-04-07T09:58:13.438Z,3.13
2019-04-07T10:01:01.478Z,3.30
2019-04-07T10:03:32.551Z,3.30
2019-04-07T10:06:12.546Z,3.63
2019-04-07T10:08:44.449Z,2.93
2019-04-07T10:11:18.511Z,2.97
2019-04-07T10:13:49.675Z,3.20
2019-04-07T10:16:27.035Z,3.40
2019-04-07T10:19:07.632Z,3.20
2019-04-07T10:21:55.206Z,3.43
2019-04-07T10:24:39.401Z,2.93
2019-04-07T10:27:26.531Z,2.87
2019-04-07T10:30:00.322Z,3.07
2019-04-07T10:32:39.651Z,3.00
2019-04-07T10:35:13.890Z,3.03
2019-04-07T10:38:01.960Z,3.13
2019-04-07T10:40:43.851Z,3.13
2019-04-07T10:43:27.257Z,3.40
2019-04-07T10:46:02.345Z,3.33
2019-04-07T10:48:37.934Z,3.10
2019-04-07T10:51:25.339Z,3.43
2019-04-07T10:54:12.478Z,3.40
2019-04-07T10:56:49.821Z,3.37
2019-04-07T10:59:32.931Z,3.30
2019-04-07T11:02:20.426Z,3.17
2019-04-07T11:04:57.570Z,3.50
2019-04-07T11:07:29.281Z,3.00
2019-04-07T11:10:06.725Z,3.00
2019-04-07T11:12:37.947Z,3.27
2019-04-07T11:15:28.891Z,3.47
2019-04-07T11:18:01.807Z,3.30
2019-04-07T11:20:48.872Z,3.43
2019-04-07T11:23:26.175Z,3.43
2019-04-07T11:26:01.011Z,3.77
2019-04-07T11:28:44.603Z,3.27
2019-04-07T11:31:32.317Z,3.00
2019-04-07T11:34:19.851Z,3.50
2019-04-07T11:37:00.580Z,3.03
2019-04-07T11:39:47.953Z,3.93
2019-04-07T11:42:19.723Z,3.33
2019-04-07T11:44:53.016Z,3.30
2019-04-07T11:47:30.169Z,3.30
2019-04-07T11:50:19.138Z,3.10
2019-04-07T11:52:50.513Z,3.00
2019-04-07T11:55:21.751Z,3.10
2019-04-07T11:58:10.944Z,3.10
2019-04-07T12:00:29.909Z,3.13
2019-04-07T12:03:05.013Z,3.20
2019-04-07T12:05:42.972Z,2.57
2019-04-07T12:08:20.408Z,2.90
2019-04-07T12:10:58.594Z,3.27
2019-04-07T12:13:36.146Z,2.77
2019-04-07T12:16:08.092Z,2.90
2019-04-07T12:18:54.777Z,3.07
2019-04-07T12:21:29.869Z,2.90
2019-04-07T12:24:01.642Z,2.80
2019-04-07T12:26:39.425Z,2.97
2019-04-07T12:29:09.996Z,2.80
2019-04-07T12:31:59.744Z,3.03
2019-04-07T12:35:07.352Z,2.70
2019-04-07T12:37:48.752Z,2.90
2019-04-07T12:40:30.561Z,2.60
2019-04-07T12:43:03.519Z,2.80
2019-04-07T12:45:48.161Z,2.60
2019-04-07T12:48:36.160Z,2.53
2019-04-07T12:51:27.602Z,2.60
2019-04-07T12:54:11.802Z,2.60
2019-04-07T12:56:51.239Z,2.57
2019-04-07T12:59:32.510Z,2.40
2019-04-07T13:02:21.413Z,2.43
2019-04-07T13:05:10.941Z,2.53
2019-04-07T13:07:50.261Z,2.23
2019-04-07T13:10:20.672Z,2.33
2019-04-07T13:13:10.209Z,2.73
2019-04-07T13:15:58.466Z,2.37
2019-04-07T13:18:31.488Z,2.40
2019-04-07T13:21:03.246Z,2.53
2019-04-07T13:23:52.879Z,2.50
2019-04-07T13:26:40.458Z,2.47
2019-04-07T13:29:11.832Z,2.30
2019-04-07T13:31:42.890Z,2.20
2019-04-07T13:34:31.843Z,2.30
2019-04-07T13:37:05.637Z,2.53
2019-04-07T13:39:40.267Z,2.47
2019-04-07T13:42:09.926Z,2.30
2019-04-07T13:44:49.959Z,2.30
2019-04-07T13:47:42.296Z,2.40
2019-04-07T13:50:24.687Z,2.43
2019-04-07T13:53:08.808Z,2.27
2019-04-07T13:55:57.366Z,2.13
2019-04-07T13:58:35.057Z,2.20
2019-04-07T14:01:19.325Z,2.47
2019-04-07T14:03:52.338Z,2.20
2019-04-07T14:06:30.046Z,2.47
2019-04-07T14:09:12.907Z,2.73
2019-04-07T14:12:04.874Z,2.60
2019-04-07T14:14:28.951Z,2.63
2019-04-07T14:17:18.179Z,2.37
2019-04-07T14:19:55.221Z,2.43
2019-04-07T14:22:38.420Z,2.50
2019-04-07T14:25:19.064Z,2.47
2019-04-07T14:27:50.545Z,3.00
2019-04-07T14:30:38.349Z,2.30
2019-04-07T14:33:28.702Z,2.50
2019-04-07T14:35:59.729Z,2.50
2019-04-07T14:38:41.201Z,2.80
2019-04-07T14:41:21.002Z,2.70
2019-04-07T14:44:01.960Z,2.50
2019-04-07T14:46:33.753Z,2.40
2019-04-07T14:49:05.500Z,2.50
2019-04-07T14:51:42.241Z,2.70
2019-04-07T14:54:18.507Z,2.30
2019-04-07T14:56:58.552Z,2.57
2019-04-07T14:59:46.023Z,3.00
2019-04-07T15:02:17.014Z,2.90
2019-04-07T15:04:54.370Z,3.17
2019-04-07T15:07:26.384Z,2.70
2019-04-07T15:10:00.546Z,2.73
2019-04-07T15:12:40.349Z,3.07
2019-04-07T15:15:11.742Z,2.80
2019-04-07T15:17:41.042Z,2.77
2019-04-07T15:20:13.721Z,3.10
2019-04-07T15:22:44.811Z,3.00
2019-04-07T15:25:13.113Z,3.13
2019-04-07T15:27:42.533Z,2.80
2019-04-07T15:30:15.319Z,3.10
2019-04-07T15:32:43.868Z,3.10
2019-04-07T15:35:15.114Z,3.20
2019-04-07T15:37:45.243Z,3.13
2019-04-07T15:40:14.739Z,2.80
2019-04-07T15:42:50.554Z,2.77
2019-04-07T15:45:20.075Z,3.17
2019-04-07T15:47:51.298Z,3.30
2019-04-07T15:50:19.948Z,3.00
2019-04-07T15:52:49.802Z,2.57
2019-04-07T15:55:19.398Z,2.90
2019-04-07T15:57:51.047Z,2.73
2019-04-07T16:00:20.261Z,2.77
2019-04-07T16:02:51.414Z,2.83
2019-04-07T16:05:21.572Z,3.37
2019-04-07T16:07:53.196Z,3.17
2019-04-07T16:10:23.930Z,3.00
2019-04-07T16:12:54.123Z,3.47
2019-04-07T16:15:25.070Z,3.20
2019-04-07T16:17:55.325Z,3.90
2019-04-07T16:20:31.655Z,3.57
2019-04-07T16:22:56.416Z,4.20
2019-04-07T16:25:27.863Z,4.80
2019-04-07T16:27:57.014Z,4.43
2019-04-07T16:30:26.439Z,4.53
2019-04-07T16:32:59.798Z,4.00
2019-04-07T16:35:27.756Z,4.33
2019-04-07T16:37:58.320Z,4.67
2019-04-07T16:40:28.534Z,4.40
2019-04-07T16:45:55.558Z,3.63
2019-04-07T16:48:26.130Z,3.37
2019-04-07T16:50:55.619Z,3.50
2019-04-07T16:53:25.725Z,3.20
2019-04-07T16:55:55.999Z,3.27
2019-04-07T16:58:25.476Z,3.20
2019-04-07T17:00:55.963Z,3.50
2019-04-07T17:03:27.431Z,3.30
2019-04-07T17:05:59.311Z,3.23
2019-04-07T17:08:28.763Z,3.20
2019-04-07T17:11:04.478Z,3.97
2019-04-07T17:13:38.584Z,3.57
2019-04-07T17:16:02.847Z,3.67
2019-04-07T17:18:38.918Z,3.33
2019-04-07T17:21:15.672Z,3.57
2019-04-07T17:23:45.967Z,3.67
2019-04-07T17:26:16.378Z,3.53
2019-04-07T17:28:48.821Z,3.37
2019-04-07T17:31:20.871Z,3.90
2019-04-07T17:33:52.169Z,3.47
2019-04-07T17:36:23.027Z,3.67
2019-04-07T17:39:03.343Z,3.40
2019-04-07T17:41:35.018Z,3.17
2019-04-07T17:44:24.589Z,3.03
2019-04-07T17:46:58.693Z,3.53
2019-04-07T17:49:44.162Z,2.90
2019-04-07T17:52:24.752Z,3.07
2019-04-07T17:54:56.711Z,2.90
2019-04-07T17:57:36.633Z,2.60
2019-04-07T18:00:24.954Z,2.77
2019-04-07T18:03:04.853Z,2.97
2019-04-07T18:05:38.720Z,3.10
2019-04-07T18:08:19.993Z,2.77
2019-04-07T18:10:57.962Z,2.83
2019-04-07T18:13:42.017Z,2.90
2019-04-07T18:16:06.678Z,2.90
2019-04-07T18:18:44.318Z,3.10
2019-04-07T18:21:25.172Z,2.83
2019-04-07T18:23:58.751Z,2.90
2019-04-07T18:26:45.472Z,3.00
2019-04-07T18:29:36.364Z,2.77
2019-04-07T18:32:14.528Z,3.03
2019-04-07T18:34:46.207Z,2.73
2019-04-07T18:37:20.566Z,2.87
2019-04-07T18:40:08.890Z,2.80
2019-04-07T18:42:42.210Z,3.03
2019-04-07T18:45:19.001Z,3.10
2019-04-07T18:48:08.093Z,3.17
2019-04-07T18:50:40.108Z,3.07
2019-04-07T18:53:28.733Z,3.13
2019-04-07T18:56:00.116Z,2.73
2019-04-07T18:58:31.270Z,3.00
2019-04-07T19:01:06.622Z,3.07
2019-04-07T19:03:53.339Z,3.20
2019-04-07T19:06:37.800Z,2.67
2019-04-07T19:09:10.269Z,2.60
2019-04-07T19:12:06.753Z,2.90
2019-04-07T19:14:42.379Z,3.10
2019-04-07T19:17:17.020Z,3.20
2019-04-07T19:20:00.734Z,2.93
2019-04-07T19:22:32.514Z,3.50
2019-04-07T19:25:11.321Z,3.03
2019-04-07T19:27:45.157Z,3.10
2019-04-07T19:30:16.404Z,3.00
2019-04-07T19:32:52.628Z,3.33
2019-04-07T19:35:41.847Z,3.40
2019-04-07T19:38:28.259Z,3.10
2019-04-07T19:41:02.718Z,2.67
2019-04-07T19:43:33.812Z,2.90
2019-04-07T19:46:14.694Z,3.20
2019-04-07T19:48:49.107Z,2.87
2019-04-07T19:51:33.884Z,2.93
2019-04-07T19:54:13.540Z,2.70
2019-04-07T19:57:00.486Z,2.83
2019-04-07T19:59:50.589Z,3.17
2019-04-07T20:02:25.337Z,3.50
2019-04-07T20:05:04.238Z,3.50
2019-04-07T20:07:50.422Z,3.40
2019-04-07T20:10:38.020Z,3.53
2019-04-07T20:13:26.127Z,3.27
2019-04-07T20:15:58.786Z,3.10
2019-04-07T20:18:35.668Z,3.20
2019-04-07T20:21:19.903Z,3.23
2019-04-07T20:24:07.385Z,3.20
2019-04-07T20:26:50.943Z,3.23
2019-04-07T20:29:20.180Z,3.30
2019-04-07T20:31:56.061Z,4.00
2019-04-07T20:34:45.581Z,3.60
2019-04-07T20:37:32.289Z,4.43
2019-04-07T20:40:20.133Z,4.33
2019-04-07T20:43:09.023Z,4.90
2019-04-07T20:45:43.133Z,5.70
2019-04-07T20:48:14.177Z,6.27
2019-04-07T20:50:47.019Z,6.93
2019-04-07T20:53:35.132Z,6.80
2019-04-07T20:56:23.426Z,7.37
2019-04-07T20:59:08.493Z,7.30
2019-04-07T21:01:42.922Z,13.67
2019-04-07T21:04:13.269Z,12.90
2019-04-07T21:06:47.607Z,11.57
2019-04-07T21:09:25.620Z,8.77
2019-04-07T21:11:56.863Z,9.03
2019-04-07T21:14:33.637Z,7.67
2019-04-07T21:17:22.686Z,7.67
2019-04-07T21:20:13.201Z,6.93
2019-04-07T21:22:46.521Z,5.10
2019-04-07T21:25:33.872Z,5.47
2019-04-07T21:28:08.966Z,6.10
2019-04-07T21:30:57.896Z,6.67
2019-04-07T21:33:28.964Z,5.77
2019-04-07T21:36:16.319Z,5.30
2019-04-07T21:38:47.492Z,5.77
2019-04-07T21:41:19.561Z,5.80
2019-04-07T21:44:07.171Z,6.77
2019-04-07T21:46:38.818Z,7.37
2019-04-07T21:49:11.847Z,6.80
2019-04-07T21:51:45.885Z,6.53
2019-04-07T21:54:17.204Z,6.63
2019-04-07T21:56:58.109Z,6.67
2019-04-07T21:59:41.001Z,6.73
2019-04-07T22:02:13.378Z,7.30
2019-04-07T22:05:01.275Z,6.70
2019-04-07T22:07:49.007Z,6.10
2019-04-07T22:10:20.497Z,7.27
2019-04-07T22:12:49.837Z,8.20
2019-04-07T22:15:19.523Z,8.50
2019-04-07T22:17:49.067Z,8.23
2019-04-07T22:20:20.139Z,8.40
2019-04-07T22:22:49.989Z,8.40
2019-04-07T22:25:22.736Z,8.33
2019-04-07T22:27:54.478Z,8.37
2019-04-07T22:30:24.142Z,8.67
2019-04-07T22:32:54.194Z,8.20
2019-04-07T22:35:24.593Z,8.33
2019-04-07T22:37:54.714Z,8.73
2019-04-07T22:40:25.589Z,7.57
2019-04-07T22:42:55.002Z,8.57
2019-04-07T22:45:27.885Z,7.53
2019-04-07T22:47:55.683Z,11.03
2019-04-07T22:50:25.281Z,9.67
2019-04-07T22:52:55.367Z,7.73
2019-04-07T22:55:24.955Z,7.27
2019-04-07T22:57:55.828Z,6.63
2019-04-07T23:00:26.794Z,7.07
2019-04-07T23:02:56.429Z,8.10
2019-04-07T23:05:25.950Z,7.27
2019-04-07T23:07:56.355Z,7.63
2019-04-07T23:10:27.463Z,7.13
2019-04-07T23:12:57.415Z,6.57
2019-04-07T23:15:38.648Z,7.23
2019-04-07T23:17:57.868Z,8.00
2019-04-07T23:20:27.354Z,7.73
2019-04-07T23:22:56.825Z,7.47
2019-04-07T23:25:26.184Z,7.57
2019-04-07T23:27:56.379Z,7.07
2019-04-07T23:30:27.887Z,7.97
2019-04-07T23:32:57.793Z,6.93
2019-04-07T23:35:27.472Z,7.13
2019-04-07T23:37:57.414Z,6.83
2019-04-07T23:40:27.979Z,7.13
2019-04-07T23:42:57.812Z,6.60
2019-04-07T23:45:27.394Z,7.60
2019-04-07T23:47:57.010Z,8.13
2019-04-07T23:50:27.247Z,8.00
2019-04-07T23:52:58.841Z,6.67
2019-04-07T23:55:28.260Z,7.00
2019-04-07T23:57:57.789Z,6.10
